Olds, Iowa
Current Conditions -  °F | °C
As of 10:15 PM on Wednesday 17 Dec 2014 (Local Time) from KAWG Reporting Station
Clear Clear  
Wind Chill: 13°   Ceiling: Unl
Heat Index: 19°   Visibility: 10mi
Dew Point: 18°   Wind: 5mph
Humidity: 93%   Direction: 360°N
Pressure: 30.31"   Gusts: NA
Location:  41.13°N, 91.54°W
Report Text: KAWG 180415Z AUTO 36004KT 10SM CLR M07/M08 A3031 RMK AO2
Loading
Personal Weather Stations






























Interactive Weather Map New forecast layout! Learn more

10-Day Weather Forecast

Advertisements
Track Severe Weather on mobile